PWSweather.com
Personal Weather Stations
Station Observations
SANDHURSTWX
SandhurstGB

SandhurstGB

Lat: 51.3522, Lon: -0.7739

Elevation: 272.3

Station Type: Davis VP2

www.sandhurstweather.org.uk

High Low Average
Temperature 64.9°F18.3°C 38.9°F3.8°C 52.4°F11.3°C
Dew Point 47.5°F8.6°C 36.8°F2.7°C 42.6°F5.9°C
Winds 9.2 mph 14.8 kmh Calm Calm 1.0 mph S1.6 kmh S
Wind Gusts 10.4 mph16.7 kmh -- 2.0 mph3.2 kmh
Humidity 95% 45% 72%
Pressure 30.30 in1026.1 mb 30.09 in1019.0 mb -
Precipitation 0.00 in0.0 mm - -
Hour Temp Dew Point Humidity Winds Wind Gusts Pressure Precip Precip Rate Daily Precip Total
12:00 AM 45.2°F7.3°C 41.0°F5.0°C 85% Calm Calm -- 30.30 in1026.1 mb - 0.00 in0.0 mm 0.00 in0.0 mm
01:00 AM 42.9°F6.1°C 39.3°F4.1°C 87% Calm Calm -- 30.29 in1025.7 mb - 0.00 in0.0 mm 0.00 in0.0 mm
02:00 AM 41.8°F5.4°C 38.8°F3.8°C 89% Calm Calm -- 30.29 in1025.7 mb - 0.00 in0.0 mm 0.00 in0.0 mm
03:00 AM 40.8°F4.9°C 38.1°F3.4°C 90% Calm Calm -- 30.29 in1025.7 mb - 0.00 in0.0 mm 0.00 in0.0 mm
04:00 AM 39.8°F4.3°C 37.4°F3.0°C 91% Calm Calm -- 30.28 in1025.4 mb - 0.00 in0.0 mm 0.00 in0.0 mm
05:00 AM 39.3°F4.1°C 37.2°F2.9°C 92% Calm Calm -- 30.28 in1025.4 mb - 0.00 in0.0 mm 0.00 in0.0 mm
06:00 AM 38.9°F3.8°C 36.8°F2.7°C 92% Calm Calm -- 30.28 in1025.4 mb - 0.00 in0.0 mm 0.00 in0.0 mm
07:00 AM 40.5°F4.7°C 38.9°F3.8°C 94% Calm Calm -- 30.27 in1025.1 mb - 0.00 in0.0 mm 0.00 in0.0 mm
08:00 AM 46.3°F7.9°C 44.9°F7.2°C 95% Calm Calm -- 30.27 in1025.1 mb - 0.00 in0.0 mm 0.00 in0.0 mm
09:00 AM 54.9°F12.7°C 47.5°F8.6°C 76% 3.5 mph NW5.6 kmh NW 5.8 mph9.3 kmh 30.27 in1025.1 mb - 0.00 in0.0 mm 0.00 in0.0 mm
10:00 AM 58.4°F14.7°C 47.4°F8.6°C 67% 2.3 mph N3.7 kmh N 4.6 mph7.4 kmh 30.25 in1024.4 mb - 0.00 in0.0 mm 0.00 in0.0 mm
11:00 AM 61.1°F16.2°C 44.3°F6.8°C 54% 9.2 mph NW14.8 kmh NW 10.4 mph16.7 kmh 30.24 in1024.0 mb - 0.00 in0.0 mm 0.00 in0.0 mm
12:00 PM 62.8°F17.1°C 44.9°F7.2°C 52% 4.6 mph NW7.4 kmh NW 10.4 mph16.7 kmh 30.22 in1023.4 mb - 0.00 in0.0 mm 0.00 in0.0 mm
01:00 PM 62.5°F16.9°C 44.6°F7.0°C 52% 2.3 mph NW3.7 kmh NW 4.6 mph7.4 kmh 30.21 in1023.0 mb - 0.00 in0.0 mm 0.00 in0.0 mm
02:00 PM 62.6°F17.0°C 44.2°F6.8°C 51% 2.3 mph NW3.7 kmh NW 4.6 mph7.4 kmh 30.20 in1022.7 mb - 0.00 in0.0 mm 0.00 in0.0 mm
03:00 PM 63.2°F17.3°C 43.8°F6.6°C 49% 4.6 mph WNW7.4 kmh WNW 5.8 mph9.3 kmh 30.17 in1021.7 mb - 0.00 in0.0 mm 0.00 in0.0 mm
04:00 PM 64.9°F18.3°C 43.0°F6.1°C 45% 3.5 mph NNE5.6 kmh NNE 4.6 mph7.4 kmh 30.15 in1021.0 mb - 0.00 in0.0 mm 0.00 in0.0 mm
05:00 PM 62.0°F16.7°C 43.1°F6.2°C 50% 1.2 mph NW1.9 kmh NW 1.2 mph1.9 kmh 30.15 in1021.0 mb - 0.00 in0.0 mm 0.00 in0.0 mm
06:00 PM 60.2°F15.7°C 45.4°F7.4°C 58% Calm Calm -- 30.14 in1020.7 mb - 0.00 in0.0 mm 0.00 in0.0 mm
07:00 PM 56.4°F13.6°C 43.5°F6.4°C 62% Calm Calm -- 30.12 in1020.0 mb - 0.00 in0.0 mm 0.00 in0.0 mm
08:00 PM 53.3°F11.8°C 43.8°F6.6°C 70% Calm Calm 1.2 mph1.9 kmh 30.11 in1019.6 mb - 0.00 in0.0 mm 0.00 in0.0 mm
09:00 PM 52.8°F11.6°C 44.4°F6.9°C 73% Calm Calm -- 30.11 in1019.6 mb - 0.00 in0.0 mm 0.00 in0.0 mm
10:00 PM 53.4°F11.9°C 45.0°F7.2°C 73% 2.3 mph WSW3.7 kmh WSW 3.5 mph5.6 kmh 30.10 in1019.3 mb - 0.00 in0.0 mm 0.00 in0.0 mm
11:00 PM 53.7°F12.1°C 46.0°F7.8°C 75% Calm Calm 1.2 mph1.9 kmh 30.09 in1019.0 mb - 0.00 in0.0 mm 0.00 in0.0 mm